createdAt,value
2022-08-16T00:00:27.608Z,18.70
2022-08-16T00:02:54.678Z,20.27
2022-08-16T00:05:22.527Z,21.00
2022-08-16T00:07:55.229Z,21.23
2022-08-16T00:10:24.215Z,22.08
2022-08-16T00:12:51.904Z,22.17
2022-08-16T00:15:51.652Z,22.05
2022-08-16T00:18:15.945Z,21.70
2022-08-16T00:20:44.834Z,20.25
2022-08-16T00:23:12.055Z,23.15
2022-08-16T00:26:35.877Z,22.45
2022-08-16T00:28:29.805Z,23.65
2022-08-16T00:30:59.150Z,22.50
2022-08-16T00:33:28.071Z,21.65
2022-08-16T00:35:57.718Z,22.30
2022-08-16T00:38:41.069Z,22.55
2022-08-16T00:41:11.378Z,22.58
2022-08-16T00:43:42.442Z,24.08
2022-08-16T00:46:33.263Z,22.52
2022-08-16T00:48:57.587Z,22.80
2022-08-16T00:51:25.203Z,24.08
2022-08-16T00:53:59.358Z,24.33
2022-08-16T00:56:56.785Z,25.30
2022-08-16T00:59:20.257Z,24.95
2022-08-16T01:01:50.701Z,26.38
2022-08-16T01:04:29.393Z,25.55
2022-08-16T01:07:02.264Z,25.60
2022-08-16T01:09:33.483Z,26.15
2022-08-16T01:12:02.448Z,27.25
2022-08-16T01:14:35.549Z,25.88
2022-08-16T01:17:02.575Z,25.67
2022-08-16T01:19:41.104Z,28.05
2022-08-16T01:22:47.747Z,26.95
2022-08-16T01:25:12.061Z,27.30
2022-08-16T01:27:55.311Z,27.63
2022-08-16T01:30:30.562Z,28.63
2022-08-16T01:33:02.348Z,29.35
2022-08-16T01:35:56.719Z,28.02
2022-08-16T01:38:25.853Z,26.95
2022-08-16T01:41:01.842Z,30.02
2022-08-16T01:43:29.330Z,30.65
2022-08-16T01:45:59.630Z,30.08
2022-08-16T01:48:46.461Z,31.55
2022-08-16T01:51:16.819Z,31.50
2022-08-16T01:53:44.186Z,31.95
2022-08-16T01:56:24.494Z,31.50
2022-08-16T01:58:54.844Z,33.22
2022-08-16T02:01:22.284Z,31.45
2022-08-16T02:03:50.623Z,32.47
2022-08-16T02:06:34.748Z,31.63
2022-08-16T02:09:05.606Z,31.65
2022-08-16T02:11:47.673Z,34.20
2022-08-16T02:14:18.516Z,33.88
2022-08-16T02:16:48.877Z,34.03
2022-08-16T02:19:18.430Z,36.83
2022-08-16T02:22:08.942Z,36.78
2022-08-16T02:24:41.986Z,34.78
2022-08-16T02:27:09.996Z,34.45
2022-08-16T02:29:37.571Z,34.20
2022-08-16T02:33:02.511Z,35.55
2022-08-16T02:34:56.370Z,33.30
2022-08-16T02:37:23.554Z,32.97
2022-08-16T02:39:53.924Z,36.97
2022-08-16T02:42:21.414Z,34.42
2022-08-16T02:44:48.856Z,34.25
2022-08-16T02:47:25.347Z,34.95
2022-08-16T02:50:34.348Z,34.97
2022-08-16T02:52:39.566Z,32.05
2022-08-16T02:55:10.726Z,32.38
2022-08-16T02:57:42.305Z,33.60
2022-08-16T03:00:34.261Z,30.70
2022-08-16T03:03:03.525Z,32.40
2022-08-16T03:05:31.707Z,31.40
2022-08-16T03:08:00.262Z,32.13
2022-08-16T03:10:33.390Z,30.00
2022-08-16T03:13:01.439Z,32.55
2022-08-16T03:15:30.393Z,32.70
2022-08-16T03:17:57.612Z,32.85
2022-08-16T03:20:31.824Z,31.10
2022-08-16T03:22:59.848Z,32.53
2022-08-16T03:25:40.913Z,31.60
2022-08-16T03:28:11.359Z,33.25
2022-08-16T03:30:39.269Z,31.70
2022-08-16T03:33:07.616Z,30.75
2022-08-16T03:35:36.370Z,31.15
2022-08-16T03:38:32.471Z,30.42
2022-08-16T03:40:56.373Z,31.77
2022-08-16T03:43:24.295Z,31.95
2022-08-16T03:46:11.118Z,32.72
2022-08-16T03:48:40.370Z,32.90
2022-08-16T03:51:12.155Z,31.38
2022-08-16T03:53:39.716Z,31.30
2022-08-16T03:56:08.011Z,30.50
2022-08-16T03:58:48.448Z,31.90
2022-08-16T04:01:18.555Z,29.65
2022-08-16T04:03:45.428Z,30.02
2022-08-16T04:06:13.000Z,29.65
2022-08-16T04:08:42.697Z,28.02
2022-08-16T04:11:12.006Z,29.13
2022-08-16T04:14:00.563Z,28.60
2022-08-16T04:16:32.305Z,27.48
2022-08-16T04:19:02.496Z,28.48
2022-08-16T04:21:32.575Z,27.63
2022-08-16T04:24:00.110Z,28.30
2022-08-16T04:26:31.166Z,29.35
2022-08-16T04:29:16.621Z,28.25
2022-08-16T04:31:56.576Z,28.85
2022-08-16T04:34:29.443Z,30.23
2022-08-16T04:36:58.084Z,28.42
2022-08-16T04:39:45.796Z,29.15
2022-08-16T04:42:13.078Z,26.58
2022-08-16T04:44:53.691Z,27.98
2022-08-16T04:47:32.860Z,26.85
2022-08-16T04:50:01.444Z,29.20
2022-08-16T04:52:34.802Z,28.83
2022-08-16T04:55:08.446Z,28.17
2022-08-16T04:57:36.912Z,27.80
2022-08-16T05:00:30.522Z,27.55
2022-08-16T05:02:58.812Z,28.33
2022-08-16T05:05:30.625Z,27.52
2022-08-16T05:08:01.439Z,27.05
2022-08-16T05:10:48.298Z,27.65
2022-08-16T05:13:17.519Z,26.85
2022-08-16T05:15:44.412Z,27.40
2022-08-16T05:18:16.129Z,27.17
2022-08-16T05:20:45.670Z,26.58
2022-08-16T05:23:31.777Z,27.10
2022-08-16T05:25:59.763Z,26.38
2022-08-16T05:28:31.019Z,26.75
2022-08-16T05:31:04.930Z,26.95
2022-08-16T05:33:33.693Z,27.10
2022-08-16T05:36:03.892Z,26.08
2022-08-16T05:38:38.825Z,26.08
2022-08-16T05:41:06.659Z,26.15
2022-08-16T05:43:43.622Z,26.15
2022-08-16T05:46:28.905Z,24.90
2022-08-16T05:49:08.974Z,24.65
2022-08-16T05:51:38.902Z,25.92
2022-08-16T05:54:07.770Z,26.33
2022-08-16T05:56:37.363Z,25.33
2022-08-16T05:59:06.439Z,25.13
2022-08-16T06:01:38.000Z,24.48
2022-08-16T06:04:13.604Z,25.45
2022-08-16T06:06:55.835Z,23.25
2022-08-16T06:09:23.756Z,24.70
2022-08-16T06:11:51.050Z,23.25
2022-08-16T06:14:17.937Z,22.92
2022-08-16T06:16:45.065Z,23.90
2022-08-16T06:19:18.234Z,25.33
2022-08-16T06:21:45.949Z,24.52
2022-08-16T06:24:55.066Z,23.73
2022-08-16T06:27:09.209Z,23.40
2022-08-16T06:29:36.313Z,23.83
2022-08-16T06:32:04.600Z,23.25
2022-08-16T06:34:57.113Z,21.65
2022-08-16T06:37:18.671Z,22.25
2022-08-16T06:39:49.941Z,23.83
2022-08-16T06:42:18.090Z,23.48
2022-08-16T06:44:45.410Z,24.48
2022-08-16T06:47:13.443Z,24.08
2022-08-16T06:49:53.797Z,23.35
2022-08-16T06:52:57.981Z,23.88
2022-08-16T06:55:13.000Z,21.80
2022-08-16T06:57:40.875Z,21.77
2022-08-16T07:00:24.279Z,21.85
2022-08-16T07:02:53.843Z,20.30
2022-08-16T07:05:21.103Z,21.92
2022-08-16T07:07:54.323Z,21.70
2022-08-16T07:10:25.821Z,19.05
2022-08-16T07:13:03.429Z,21.20
2022-08-16T07:15:35.265Z,20.88
2022-08-16T07:18:02.259Z,22.45
2022-08-16T07:20:36.095Z,20.95
2022-08-16T07:23:15.177Z,20.02
2022-08-16T07:25:42.363Z,21.30
2022-08-16T07:28:12.021Z,22.15
2022-08-16T07:30:47.417Z,20.10
2022-08-16T07:33:20.294Z,20.60
2022-08-16T07:36:07.987Z,19.42
2022-08-16T07:38:36.842Z,20.30
2022-08-16T07:41:09.952Z,19.95
2022-08-16T07:43:40.557Z,19.98
2022-08-16T07:46:38.993Z,20.58
2022-08-16T07:49:02.377Z,20.60
2022-08-16T07:51:35.594Z,21.33
2022-08-16T07:54:09.406Z,21.38
2022-08-16T07:56:37.598Z,21.40
2022-08-16T07:59:05.446Z,20.00
2022-08-16T08:01:32.285Z,20.52
2022-08-16T08:03:59.445Z,20.30
2022-08-16T08:06:28.715Z,19.20
2022-08-16T08:08:57.063Z,20.42
2022-08-16T08:11:28.124Z,19.02
2022-08-16T08:13:55.691Z,19.33
2022-08-16T08:16:30.489Z,20.98
2022-08-16T08:19:01.033Z,19.63
2022-08-16T08:21:58.155Z,18.50
2022-08-16T08:24:16.916Z,18.60
2022-08-16T08:26:43.878Z,19.98
2022-08-16T08:29:11.936Z,21.02
2022-08-16T08:31:42.177Z,15.88
2022-08-16T08:34:09.127Z,17.67
2022-08-16T08:36:40.662Z,18.17
2022-08-16T08:39:12.905Z,18.58
2022-08-16T08:41:42.252Z,17.30
2022-08-16T08:44:29.272Z,18.33
2022-08-16T08:47:04.760Z,17.00
2022-08-16T08:49:46.529Z,18.02
2022-08-16T08:52:34.996Z,18.73
2022-08-16T08:55:09.258Z,16.85
2022-08-16T08:57:42.296Z,17.27
2022-08-16T09:00:13.163Z,16.92
2022-08-16T09:02:43.074Z,17.15
2022-08-16T09:05:15.711Z,17.80
2022-08-16T09:08:00.728Z,16.27
2022-08-16T09:10:30.136Z,17.30
2022-08-16T09:12:58.442Z,14.48
2022-08-16T09:15:32.831Z,16.92
2022-08-16T09:18:02.102Z,16.92
2022-08-16T09:20:59.860Z,15.77
2022-08-16T09:23:36.630Z,16.30
2022-08-16T09:26:44.882Z,16.35
2022-08-16T09:29:15.345Z,16.55
2022-08-16T09:31:41.386Z,17.23
2022-08-16T09:34:09.338Z,15.45
2022-08-16T09:36:46.259Z,16.13
2022-08-16T09:39:15.739Z,16.80
2022-08-16T09:41:44.152Z,15.98
2022-08-16T09:45:11.027Z,16.85
2022-08-16T09:47:10.318Z,17.40
2022-08-16T09:49:40.807Z,14.20
2022-08-16T09:52:09.504Z,17.63
2022-08-16T09:54:36.882Z,16.92
2022-08-16T09:57:03.979Z,17.40
2022-08-16T09:59:31.442Z,17.77
2022-08-16T10:02:25.983Z,16.17
2022-08-16T10:04:54.945Z,16.73
2022-08-16T10:07:22.467Z,16.25
2022-08-16T10:09:54.548Z,15.82
2022-08-16T10:12:43.228Z,16.63
2022-08-16T10:15:15.884Z,13.63
2022-08-16T10:17:45.823Z,18.17
2022-08-16T10:20:29.206Z,19.27
2022-08-16T10:23:03.564Z,17.42
2022-08-16T10:27:18.016Z,17.60
2022-08-16T10:28:30.338Z,14.00
2022-08-16T10:31:00.610Z,18.45
2022-08-16T10:33:33.555Z,17.05
2022-08-16T10:36:04.017Z,17.13
2022-08-16T10:38:33.048Z,15.27
2022-08-16T10:41:03.987Z,17.15
2022-08-16T10:43:31.445Z,17.45
2022-08-16T10:46:00.754Z,14.63
2022-08-16T10:48:28.758Z,14.88
2022-08-16T10:50:58.712Z,18.05
2022-08-16T10:53:32.674Z,16.73
2022-08-16T10:56:06.410Z,17.60
2022-08-16T10:58:52.619Z,16.40
2022-08-16T11:01:40.036Z,14.15
2022-08-16T11:05:04.731Z,14.75
2022-08-16T11:07:43.321Z,15.77
2022-08-16T11:09:42.977Z,14.75
2022-08-16T11:12:14.445Z,12.30
2022-08-16T11:15:11.249Z,12.15
2022-08-16T11:17:28.806Z,12.73
2022-08-16T11:20:36.724Z,13.63
2022-08-16T11:22:49.697Z,13.57
2022-08-16T11:29:12.351Z,12.15
2022-08-16T11:31:02.502Z,13.27
2022-08-16T11:36:27.312Z,12.20
2022-08-16T11:38:57.695Z,10.32
2022-08-16T11:41:29.419Z,22.98
2022-08-16T11:43:59.184Z,22.90
2022-08-16T11:46:45.724Z,23.52
2022-08-16T11:49:14.058Z,25.45
2022-08-16T11:51:44.478Z,22.30
2022-08-16T11:54:20.755Z,24.92
2022-08-16T11:56:57.641Z,27.60
2022-08-16T11:59:28.835Z,29.30
2022-08-16T12:02:00.228Z,31.25
2022-08-16T12:04:45.903Z,30.60
2022-08-16T12:07:18.975Z,30.42
2022-08-16T12:09:48.507Z,28.05
2022-08-16T12:12:15.511Z,30.52
2022-08-16T12:14:45.794Z,31.90
2022-08-16T12:17:14.347Z,30.85
2022-08-16T12:19:41.448Z,30.05
2022-08-16T12:22:19.728Z,26.70
2022-08-16T12:24:52.363Z,22.67
2022-08-16T12:27:24.240Z,27.88
2022-08-16T12:29:54.458Z,28.02
2022-08-16T12:32:37.421Z,27.98
2022-08-16T12:35:08.567Z,28.50
2022-08-16T12:37:35.527Z,28.00
2022-08-16T12:40:02.557Z,25.42
2022-08-16T12:42:35.334Z,24.27
2022-08-16T12:45:07.309Z,24.15
2022-08-16T12:48:10.040Z,25.65
2022-08-16T12:50:40.502Z,25.15
2022-08-16T12:53:07.925Z,26.77
2022-08-16T12:55:41.769Z,27.17
2022-08-16T12:58:14.012Z,25.80
2022-08-16T13:00:56.612Z,27.67
2022-08-16T13:03:23.479Z,28.13
2022-08-16T13:05:53.466Z,26.67
2022-08-16T13:08:22.731Z,27.63
2022-08-16T13:10:55.180Z,25.38
2022-08-16T13:13:26.989Z,27.85
2022-08-16T13:16:03.443Z,27.23
2022-08-16T13:18:34.501Z,25.58
2022-08-16T13:21:06.700Z,26.40
2022-08-16T13:23:35.820Z,26.88
2022-08-16T13:26:03.401Z,27.35
2022-08-16T13:28:30.254Z,27.45
2022-08-16T13:30:57.286Z,26.75
2022-08-16T13:33:30.633Z,26.92
2022-08-16T13:35:59.209Z,25.00
2022-08-16T13:38:30.013Z,24.42
2022-08-16T13:40:59.911Z,24.00
2022-08-16T13:43:28.858Z,21.70
2022-08-16T13:46:02.969Z,24.70
2022-08-16T13:48:42.551Z,22.88
2022-08-16T13:51:16.860Z,22.55
2022-08-16T13:53:49.717Z,22.15
2022-08-16T13:56:25.316Z,22.83
2022-08-16T13:58:54.809Z,22.52
2022-08-16T14:01:22.893Z,22.35
2022-08-16T14:03:50.482Z,22.17
2022-08-16T14:06:21.599Z,21.65
2022-08-16T14:08:50.321Z,21.73
2022-08-16T14:11:25.880Z,20.80
2022-08-16T14:13:52.952Z,20.58
2022-08-16T14:16:23.901Z,19.42
2022-08-16T14:18:57.227Z,17.50
2022-08-16T14:21:24.135Z,16.63
2022-08-16T14:23:52.270Z,15.63
2022-08-16T14:26:21.277Z,16.75
2022-08-16T14:28:50.462Z,15.50
2022-08-16T14:31:17.726Z,15.98
2022-08-16T14:33:44.881Z,16.83
2022-08-16T14:36:11.915Z,19.15
2022-08-16T14:38:45.773Z,17.20
2022-08-16T14:41:13.960Z,20.70
2022-08-16T14:43:40.785Z,20.17
2022-08-16T14:46:07.816Z,23.17
2022-08-16T14:48:34.834Z,20.85
2022-08-16T14:51:01.895Z,21.65
2022-08-16T14:53:28.963Z,23.35
2022-08-16T14:55:59.639Z,23.35
2022-08-16T14:58:35.091Z,23.25
2022-08-16T15:01:06.332Z,22.60
2022-08-16T15:03:44.448Z,22.85
2022-08-16T15:06:13.158Z,17.77
2022-08-16T15:08:41.400Z,20.33
2022-08-16T15:11:08.221Z,20.30
2022-08-16T15:13:35.393Z,20.77
2022-08-16T15:16:03.707Z,21.70
2022-08-16T15:18:32.363Z,20.83
2022-08-16T15:21:03.763Z,20.05
2022-08-16T15:23:33.716Z,22.85
2022-08-16T15:26:03.567Z,25.10
2022-08-16T15:28:32.613Z,20.75
2022-08-16T15:31:03.204Z,15.45
2022-08-16T15:33:32.348Z,16.85
2022-08-16T15:35:59.476Z,17.00
2022-08-16T15:38:57.874Z,18.50
2022-08-16T15:41:38.400Z,17.13
2022-08-16T15:44:10.838Z,19.35
2022-08-16T15:46:55.627Z,20.85
2022-08-16T15:49:37.177Z,16.73
2022-08-16T15:52:15.825Z,19.45
2022-08-16T15:54:52.639Z,17.27
2022-08-16T15:57:24.315Z,19.55
2022-08-16T15:59:52.498Z,18.38
2022-08-16T16:02:29.214Z,16.67
2022-08-16T16:05:02.506Z,16.08
2022-08-16T16:07:33.240Z,17.50
2022-08-16T16:10:01.454Z,16.20
2022-08-16T16:15:18.923Z,16.50
2022-08-16T16:17:50.648Z,16.70
2022-08-16T16:20:19.354Z,16.40
2022-08-16T16:22:46.646Z,16.80
2022-08-16T16:25:15.958Z,15.02
2022-08-16T16:27:43.771Z,15.25
2022-08-16T16:30:38.276Z,15.10
2022-08-16T16:32:59.770Z,13.02
2022-08-16T16:35:32.599Z,13.15
2022-08-16T16:37:59.846Z,13.07
2022-08-16T16:40:32.921Z,14.57
2022-08-16T16:43:00.435Z,15.38
2022-08-16T16:45:33.534Z,14.25
2022-08-16T16:48:05.817Z,13.70
2022-08-16T16:50:44.546Z,13.27
2022-08-16T16:53:17.177Z,13.02
2022-08-16T16:55:52.036Z,13.00
2022-08-16T16:58:43.500Z,12.00
2022-08-16T17:01:10.626Z,11.13
2022-08-16T17:03:38.500Z,9.48
2022-08-16T17:06:09.279Z,9.68
2022-08-16T17:08:40.784Z,9.82
2022-08-16T17:11:13.999Z,10.35
2022-08-16T17:13:41.912Z,11.45
2022-08-16T17:16:09.023Z,9.73
2022-08-16T17:19:16.358Z,8.77
2022-08-16T17:21:36.895Z,8.38
2022-08-16T17:24:17.408Z,9.60
2022-08-16T17:26:48.892Z,10.23
2022-08-16T17:29:16.225Z,10.23
2022-08-16T17:31:43.793Z,9.50
2022-08-16T17:34:29.299Z,8.70
2022-08-16T17:37:04.893Z,10.30
2022-08-16T17:39:33.579Z,9.73
2022-08-16T17:42:08.071Z,10.25
2022-08-16T17:44:35.047Z,10.73
2022-08-16T17:47:01.867Z,10.20
2022-08-16T17:49:28.767Z,10.27
2022-08-16T17:51:55.589Z,11.73
2022-08-16T17:54:30.356Z,10.10
2022-08-16T17:57:01.126Z,12.10
2022-08-16T17:59:28.975Z,13.13
2022-08-16T18:01:56.358Z,11.40
2022-08-16T18:04:49.854Z,11.45
2022-08-16T18:07:10.787Z,11.40
2022-08-16T18:09:39.573Z,10.90
2022-08-16T18:12:44.364Z,9.38
2022-08-16T18:15:03.223Z,9.75
2022-08-16T18:17:30.083Z,10.23
2022-08-16T18:19:56.892Z,11.43
2022-08-16T18:22:30.523Z,11.55
2022-08-16T18:24:57.881Z,9.30
2022-08-16T18:27:27.268Z,11.55
2022-08-16T18:29:54.743Z,11.20
2022-08-16T18:32:21.902Z,10.35
2022-08-16T18:34:54.148Z,11.95
2022-08-16T18:37:23.167Z,11.98
2022-08-16T18:39:50.259Z,11.60
2022-08-16T18:42:17.276Z,12.43
2022-08-16T18:44:44.210Z,12.18
2022-08-16T18:47:11.078Z,11.75
2022-08-16T18:49:38.022Z,13.93
2022-08-16T18:52:05.034Z,12.25
2022-08-16T18:54:32.459Z,12.68
2022-08-16T18:56:59.478Z,11.88
2022-08-16T18:59:27.783Z,11.15
2022-08-16T19:01:59.674Z,12.35
2022-08-16T19:04:56.589Z,12.38
2022-08-16T19:07:14.909Z,11.55
2022-08-16T19:09:41.779Z,13.48
2022-08-16T19:12:08.969Z,10.95
2022-08-16T19:14:35.815Z,11.88
2022-08-16T19:17:02.689Z,12.88
2022-08-16T19:19:29.599Z,11.45
2022-08-16T19:21:56.894Z,13.35
2022-08-16T19:24:29.189Z,13.43
2022-08-16T19:26:56.350Z,15.45
2022-08-16T19:29:25.146Z,14.60
2022-08-16T19:31:52.039Z,14.15
2022-08-16T19:34:19.027Z,14.45
2022-08-16T19:36:45.952Z,13.93
2022-08-16T19:39:14.082Z,15.35
2022-08-16T19:41:46.117Z,16.65
2022-08-16T19:44:19.933Z,18.38
2022-08-16T19:46:48.664Z,18.45
2022-08-16T19:49:16.221Z,18.77
2022-08-16T19:51:44.145Z,18.98
2022-08-16T19:54:11.048Z,18.98
2022-08-16T19:56:37.974Z,18.60
2022-08-16T19:59:21.830Z,19.20
2022-08-16T20:01:52.387Z,17.98
2022-08-16T20:04:20.756Z,20.08
2022-08-16T20:06:47.595Z,21.80
2022-08-16T20:09:15.763Z,18.55
2022-08-16T20:11:46.206Z,18.98
2022-08-16T20:14:20.141Z,21.88
2022-08-16T20:16:57.151Z,19.65
2022-08-16T20:19:25.190Z,20.77
2022-08-16T20:21:57.645Z,21.17
2022-08-16T20:24:40.426Z,22.23
2022-08-16T20:27:10.674Z,18.45
2022-08-16T20:29:41.640Z,20.77
2022-08-16T20:32:13.888Z,19.85
2022-08-16T20:34:44.274Z,21.45
2022-08-16T20:37:16.260Z,19.25
2022-08-16T20:39:47.145Z,18.67
2022-08-16T20:42:15.133Z,20.40
2022-08-16T20:44:42.047Z,21.10
2022-08-16T20:47:09.135Z,19.45
2022-08-16T20:49:36.237Z,18.65
2022-08-16T20:52:08.566Z,20.60
2022-08-16T20:54:35.598Z,20.75
2022-08-16T20:57:02.659Z,22.27
2022-08-16T20:59:29.501Z,22.13
2022-08-16T21:01:57.123Z,21.08
2022-08-16T21:04:25.568Z,21.27
2022-08-16T21:06:53.611Z,23.52
2022-08-16T21:09:23.589Z,19.08
2022-08-16T21:11:51.632Z,20.52
2022-08-16T21:14:18.473Z,23.67
2022-08-16T21:16:45.857Z,21.10
2022-08-16T21:19:13.068Z,20.30
2022-08-16T21:21:39.916Z,19.40
2022-08-16T21:24:06.820Z,20.35
2022-08-16T21:26:39.075Z,19.45
2022-08-16T21:29:06.643Z,18.88
2022-08-16T21:31:38.334Z,20.63
2022-08-16T21:34:05.206Z,22.77
2022-08-16T21:36:34.917Z,21.55
2022-08-16T21:39:05.677Z,20.52
2022-08-16T21:41:32.962Z,20.27
2022-08-16T21:43:59.837Z,21.73
2022-08-16T21:46:26.661Z,21.17
2022-08-16T21:48:53.492Z,21.63
2022-08-16T21:51:20.812Z,25.30
2022-08-16T21:53:47.722Z,24.70
2022-08-16T21:56:16.582Z,25.45
2022-08-16T21:58:45.542Z,24.33
2022-08-16T22:01:12.402Z,26.95
2022-08-16T22:03:39.284Z,26.42
2022-08-16T22:06:12.708Z,25.08
2022-08-16T22:08:51.065Z,32.60
2022-08-16T22:11:22.529Z,27.38
2022-08-16T22:13:57.570Z,24.52
2022-08-16T22:16:26.146Z,29.13
2022-08-16T22:18:53.015Z,36.03
2022-08-16T22:21:20.094Z,38.95
2022-08-16T22:23:57.430Z,39.40
2022-08-16T22:26:30.652Z,43.03
2022-08-16T22:29:05.459Z,42.67
2022-08-16T22:31:33.005Z,41.92
2022-08-16T22:34:01.815Z,40.35
2022-08-16T22:36:29.555Z,43.10
2022-08-16T22:39:01.933Z,43.67
2022-08-16T22:41:29.133Z,46.15
2022-08-16T22:43:56.356Z,43.45
2022-08-16T22:46:23.350Z,46.65
2022-08-16T22:48:50.871Z,48.38
2022-08-16T22:51:19.153Z,46.80
2022-08-16T22:53:46.159Z,46.28
2022-08-16T22:56:13.011Z,49.60
2022-08-16T22:58:39.983Z,48.10
2022-08-16T23:01:08.135Z,46.30
2022-08-16T23:03:35.435Z,52.20
2022-08-16T23:06:02.378Z,50.55
2022-08-16T23:08:38.505Z,52.25
2022-08-16T23:11:07.375Z,52.70
2022-08-16T23:13:34.269Z,52.17
2022-08-16T23:16:03.382Z,51.28
2022-08-16T23:18:38.905Z,51.45
2022-08-16T23:21:07.721Z,47.10
2022-08-16T23:23:34.691Z,42.25
2022-08-16T23:26:01.545Z,48.50
2022-08-16T23:28:30.796Z,46.63
2022-08-16T23:30:58.027Z,42.55
2022-08-16T23:33:26.171Z,39.95
2022-08-16T23:35:55.259Z,42.85
2022-08-16T23:38:37.855Z,42.40
2022-08-16T23:41:09.109Z,37.20
2022-08-16T23:43:44.371Z,41.28
2022-08-16T23:46:15.043Z,44.08
2022-08-16T23:50:01.795Z,41.97
2022-08-16T23:51:29.050Z,40.88
2022-08-16T23:53:56.027Z,42.97
2022-08-16T23:56:22.937Z,42.97
2022-08-16T23:58:52.595Z,43.13
